Terminal Aerodrome Forecast
Issued by NWS

Home | Current Version | Previous Version | Text Only | Print | Product List | Glossary On
Versions: 1 2 3 4 5 6 7 8 9 10 11 12 13 14 15 16 17 18 19 20 21 22 23 24 25 26 27 28 29 30
000
FTUS44 KTSA 191200 AAB
TAFFYV
TAF AMD
KFYV 191258Z 1913/2012 00000KT 3SM BR OVC010
     FM191500 15005KT P6SM SCT015 SCT250
     FM191800 17006KT P6SM SCT040
      TEMPO 1919/1923 BKN040
     FM200100 15002KT P6SM SCT250=

USA.gov is the U.S. government's official web portal to all federal, state and local government web resources and services.